Time;durP1;ratioP1;P1;durP2;ratioP2;P2;SDS_P1;SDS_P2;PMS_P1;PMS_P2;Temp;Humidity;BMP_temperature;BMP_pressure;BME280_temperature;BME280_humidity;BME280_pressure;Samples;Min_cycle;Max_cycle;Signal;HPM_P1;HPM_P2
2023/06/26 00:03:29;;;;;;;9.50;5.80;;;;;16.80;96432.00;;;;8301501;28;20284;-61
2023/06/26 00:07:36;;;;;;;7.28;6.18;;;;;16.80;96437.00;;;;8297603;28;20202;-62
2023/06/26 00:11:39;;;;;;;11.82;7.15;;;;;16.50;96429.00;;;;8265892;28;20230;-61
2023/06/26 00:15:42;;;;;;;9.13;6.50;;;;;16.40;96433.00;;;;8290847;28;20237;-62
2023/06/26 00:19:46;;;;;;;11.38;6.82;;;;;16.40;96439.00;;;;8284374;28;20718;-61
2023/06/26 00:23:53;;;;;;;8.85;6.75;;;;;16.30;96439.00;;;;8289265;28;20241;-62
2023/06/26 00:27:56;;;;;;;10.57;6.78;;;;;16.10;96437.00;;;;8289721;28;20202;-62
2023/06/26 00:31:59;;;;;;;10.40;6.75;;;;;16.10;96434.00;;;;8291856;28;20804;-62
2023/06/26 00:36:05;;;;;;;10.57;7.38;;;;;16.20;96432.00;;;;8289596;28;20808;-62
2023/06/26 00:40:09;;;;;;;14.73;6.32;;;;;16.10;96430.00;;;;8290451;28;20194;-62
2023/06/26 00:44:13;;;;;;;9.70;7.38;;;;;16.10;96431.00;;;;8288201;28;20289;-62
2023/06/26 00:48:19;;;;;;;9.38;6.55;;;;;16.10;96429.00;;;;8289788;28;20197;-61
2023/06/26 00:52:24;;;;;;;12.23;7.10;;;;;16.10;96433.00;;;;8287483;28;20230;-61
2023/06/26 00:56:32;;;;;;;10.40;6.70;;;;;16.20;96430.00;;;;8288135;28;20716;-62
2023/06/26 01:00:38;;;;;;;10.98;7.10;;;;;16.20;96438.00;;;;8278781;28;20617;-62
2023/06/26 01:04:46;;;;;;;11.98;7.13;;;;;16.10;96422.00;;;;8286857;28;20234;-62
2023/06/26 01:08:52;;;;;;;11.25;7.15;;;;;15.90;96417.00;;;;8295833;28;20206;-62
2023/06/26 01:12:55;;;;;;;8.82;6.38;;;;;15.80;96423.00;;;;8291962;28;20211;-61
2023/06/26 01:17:00;;;;;;;9.63;7.15;;;;;15.90;96420.00;;;;8293045;28;20205;-61
2023/06/26 01:21:04;;;;;;;11.10;7.10;;;;;15.90;96421.00;;;;8274095;28;20194;-61
2023/06/26 01:25:17;;;;;;;8.70;6.85;;;;;15.90;96421.00;;;;8293456;28;20202;-61
2023/06/26 01:29:25;;;;;;;9.57;6.78;;;;;16.00;96421.00;;;;8289129;28;20209;-61
2023/06/26 01:33:30;;;;;;;7.78;6.22;;;;;16.00;96414.00;;;;8290285;28;20711;-61
2023/06/26 01:37:33;;;;;;;14.20;6.82;;;;;15.90;96420.00;;;;8293470;28;20202;-61
2023/06/26 01:41:37;;;;;;;8.98;6.85;;;;;15.90;96420.00;;;;8295486;28;20407;-61
2023/06/26 01:45:46;;;;;;;8.77;6.40;;;;;15.80;96412.00;;;;8294196;28;20256;-61
2023/06/26 01:49:58;;;;;;;9.70;7.05;;;;;15.80;96417.00;;;;8293679;28;20592;-61
2023/06/26 01:54:10;;;;;;;10.75;7.05;;;;;15.70;96409.00;;;;8288351;28;21061;-62
2023/06/26 01:58:16;;;;;;;9.43;6.75;;;;;15.70;96405.00;;;;8295427;28;20739;-62
2023/06/26 02:02:23;;;;;;;10.45;7.00;;;;;15.70;96407.00;;;;8297554;28;20574;-61
2023/06/26 02:06:28;;;;;;;8.88;6.63;;;;;15.60;96403.00;;;;8289024;28;20232;-61
2023/06/26 02:10:34;;;;;;;13.02;7.72;;;;;15.50;96409.00;;;;8283169;28;20241;-62
2023/06/26 02:14:37;;;;;;;14.30;7.63;;;;;15.30;96410.00;;;;8286004;28;20226;-62
2023/06/26 02:18:44;;;;;;;9.43;7.28;;;;;15.30;96404.00;;;;8276003;28;20229;-62
2023/06/26 02:22:48;;;;;;;10.77;6.85;;;;;15.20;96404.00;;;;8295409;28;20210;-61
2023/06/26 02:26:53;;;;;;;10.73;7.40;;;;;15.10;96409.00;;;;8291547;28;20236;-61
2023/06/26 02:30:56;;;;;;;10.50;7.18;;;;;15.00;96404.00;;;;8288876;28;20816;-61
2023/06/26 02:35:01;;;;;;;12.77;8.25;;;;;14.90;96400.00;;;;8294660;28;20239;-61
2023/06/26 02:39:04;;;;;;;12.98;8.48;;;;;14.90;96405.00;;;;8296236;28;20297;-61
2023/06/26 02:43:07;;;;;;;13.65;7.50;;;;;14.90;96409.00;;;;8293788;28;20737;-61
2023/06/26 02:47:17;;;;;;;11.60;6.82;;;;;15.00;96408.00;;;;8284112;28;20200;-62
2023/06/26 02:51:23;;;;;;;12.27;7.32;;;;;15.00;96406.00;;;;8301058;28;20292;-61
2023/06/26 02:55:29;;;;;;;13.13;7.97;;;;;14.90;96408.00;;;;8292223;28;20693;-61
2023/06/26 02:59:32;;;;;;;12.05;7.78;;;;;14.90;96411.00;;;;8297025;28;20241;-61
2023/06/26 03:03:40;;;;;;;10.35;7.47;;;;;15.00;96411.00;;;;8353786;23;20231;-61
2023/06/26 03:07:45;;;;;;;11.63;8.15;;;;;15.00;96408.00;;;;8252673;28;20301;-61
2023/06/26 03:11:50;;;;;;;11.02;8.07;;;;;14.80;96405.00;;;;8233427;28;21011;-61
2023/06/26 03:15:57;;;;;;;10.90;7.38;;;;;14.80;96407.00;;;;8252745;28;20233;-61
2023/06/26 03:20:00;;;;;;;12.10;7.88;;;;;14.90;96408.00;;;;8245971;28;20210;-61
2023/06/26 03:24:07;;;;;;;11.95;8.10;;;;;14.80;96405.00;;;;8248702;28;20207;-62
2023/06/26 03:28:13;;;;;;;16.73;8.55;;;;;14.80;96409.00;;;;8247174;28;20198;-62
2023/06/26 03:32:16;;;;;;;9.45;7.45;;;;;14.80;96405.00;;;;8251228;28;20237;-61
2023/06/26 03:36:19;;;;;;;12.23;7.50;;;;;14.90;96407.00;;;;8248030;28;20257;-62
2023/06/26 03:40:24;;;;;;;11.27;7.97;;;;;15.00;96398.00;;;;8244134;28;20202;-61
2023/06/26 03:44:27;;;;;;;11.90;8.15;;;;;15.00;96406.00;;;;8250916;28;20316;-61
2023/06/26 03:48:33;;;;;;;12.15;8.48;;;;;15.10;96397.00;;;;8250580;28;20210;-61
2023/06/26 03:52:36;;;;;;;13.52;8.05;;;;;15.30;96404.00;;;;8251249;28;20926;-63
2023/06/26 03:56:45;;;;;;;11.05;7.85;;;;;15.50;96407.00;;;;8248656;28;20201;-63
2023/06/26 04:00:50;;;;;;;15.07;7.68;;;;;15.70;96400.00;;;;8243749;28;20289;-62
2023/06/26 04:04:53;;;;;;;11.40;6.70;;;;;15.90;96402.00;;;;8240582;28;20237;-62
2023/06/26 04:08:56;;;;;;;11.77;6.68;;;;;16.20;96405.00;;;;8251216;28;20623;-63
2023/06/26 04:13:01;;;;;;;13.05;8.23;;;;;16.50;96392.00;;;;8240056;28;20219;-63
2023/06/26 04:17:10;;;;;;;9.82;6.95;;;;;17.00;96398.00;;;;8226096;28;20274;-63
2023/06/26 04:21:14;;;;;;;11.38;7.53;;;;;17.40;96395.00;;;;8238648;28;20962;-63
2023/06/26 04:25:20;;;;;;;11.40;7.07;;;;;17.80;96397.00;;;;8228860;28;20202;-63
2023/06/26 04:29:26;;;;;;;8.77;6.72;;;;;18.10;96397.00;;;;8232751;28;20555;-63
2023/06/26 04:33:30;;;;;;;9.10;6.90;;;;;18.50;96402.00;;;;8247332;28;20579;-63
2023/06/26 04:37:34;;;;;;;10.27;6.95;;;;;18.80;96408.00;;;;8245873;28;20207;-63
2023/06/26 04:41:40;;;;;;;13.82;6.88;;;;;19.20;96407.00;;;;8238238;28;20236;-63
2023/06/26 04:45:49;;;;;;;6.93;6.18;;;;;19.70;96411.00;;;;8233551;28;20286;-64
2023/06/26 04:49:57;;;;;;;8.68;6.60;;;;;20.10;96400.00;;;;8240804;28;20208;-63
2023/06/26 04:54:04;;;;;;;8.75;6.18;;;;;20.00;96396.00;;;;8248859;28;20317;-63
2023/06/26 04:58:07;;;;;;;11.80;6.90;;;;;19.90;96398.00;;;;8248326;28;20214;-62
2023/06/26 05:02:14;;;;;;;11.85;7.75;;;;;19.80;96401.00;;;;8250535;28;20677;-62
2023/06/26 05:06:18;;;;;;;10.15;6.68;;;;;20.10;96400.00;;;;8244545;28;20195;-62
2023/06/26 05:10:21;;;;;;;10.25;7.22;;;;;20.30;96404.00;;;;8239554;28;20203;-63
2023/06/26 05:14:31;;;;;;;15.30;7.57;;;;;20.40;96403.00;;;;8249319;28;20226;-62
2023/06/26 05:18:36;;;;;;;10.32;7.00;;;;;20.60;96409.00;;;;8242337;28;20203;-63
2023/06/26 05:22:40;;;;;;;12.13;7.60;;;;;20.70;96396.00;;;;8249180;28;20203;-62
2023/06/26 05:26:44;;;;;;;10.68;7.97;;;;;21.10;96402.00;;;;8251766;28;20861;-62
2023/06/26 05:30:56;;;;;;;11.70;8.80;;;;;21.50;96403.00;;;;8243684;28;20234;-62
2023/06/26 05:35:10;;;;;;;14.07;8.15;;;;;22.00;96394.00;;;;8254602;28;20235;-64
2023/06/26 05:39:14;;;;;;;12.88;8.68;;;;;22.70;96392.00;;;;8247973;28;20203;-63
2023/06/26 05:43:20;;;;;;;11.77;8.88;;;;;23.30;96398.00;;;;8247951;28;20290;-62
2023/06/26 05:47:29;;;;;;;14.40;8.63;;;;;23.90;96395.00;;;;8247813;28;20241;-63
2023/06/26 05:51:35;;;;;;;10.02;7.97;;;;;24.60;96400.00;;;;8244662;28;20199;-62
2023/06/26 05:55:48;;;;;;;14.10;8.18;;;;;25.30;96395.00;;;;8244984;28;20318;-63
2023/06/26 05:59:55;;;;;;;12.57;7.65;;;;;26.00;96399.00;;;;8240208;28;20362;-64
2023/06/26 06:04:00;;;;;;;9.90;7.93;;;;;26.70;96397.00;;;;8245405;28;20840;-63
2023/06/26 06:08:05;;;;;;;10.20;8.13;;;;;27.50;96391.00;;;;8245864;28;20204;-63
2023/06/26 06:12:09;;;;;;;10.75;7.60;;;;;27.80;96399.00;;;;8240432;28;20824;-63
2023/06/26 06:16:14;;;;;;;14.98;8.48;;;;;28.00;96404.00;;;;8246721;28;20230;-63
2023/06/26 06:20:21;;;;;;;8.45;7.22;;;;;28.40;96409.00;;;;8247098;28;20282;-63
2023/06/26 06:24:26;;;;;;;8.95;7.22;;;;;28.80;96406.00;;;;8249529;28;20306;-65
2023/06/26 06:28:33;;;;;;;16.58;7.20;;;;;29.00;96407.00;;;;8251934;28;20194;-63
2023/06/26 06:32:38;;;;;;;10.52;7.70;;;;;29.50;96400.00;;;;8245781;28;20203;-64
2023/06/26 06:36:45;;;;;;;9.50;6.53;;;;;29.90;96402.00;;;;8253176;28;20281;-63
2023/06/26 06:40:50;;;;;;;9.85;7.15;;;;;30.30;96407.00;;;;8248981;28;20305;-63
2023/06/26 06:44:55;;;;;;;8.60;6.90;;;;;30.60;96405.00;;;;8249097;28;20870;-64
2023/06/26 06:49:00;;;;;;;8.32;7.03;;;;;30.80;96405.00;;;;8230698;28;20203;-62
2023/06/26 06:53:06;;;;;;;7.00;6.30;;;;;30.90;96406.00;;;;8249375;28;20234;-62
2023/06/26 06:57:11;;;;;;;7.18;6.47;;;;;31.20;96406.00;;;;8241785;28;20290;-62
2023/06/26 07:01:14;;;;;;;9.40;6.55;;;;;31.50;96408.00;;;;8243610;28;20223;-64
2023/06/26 07:05:17;;;;;;;9.07;6.13;;;;;32.00;96404.00;;;;8250396;28;20227;-61
2023/06/26 07:09:20;;;;;;;8.88;6.32;;;;;32.30;96401.00;;;;8245143;28;20199;-63
2023/06/26 07:13:25;;;;;;;6.57;5.75;;;;;32.60;96407.00;;;;8225585;28;20286;-62
2023/06/26 07:17:29;;;;;;;9.80;6.50;;;;;32.70;96403.00;;;;8249955;28;20304;-64
2023/06/26 07:21:32;;;;;;;6.80;6.10;;;;;33.10;96399.00;;;;8244783;28;20289;-62
2023/06/26 07:25:38;;;;;;;7.68;6.22;;;;;33.30;96402.00;;;;8249160;28;20682;-63
2023/06/26 07:29:45;;;;;;;6.70;5.68;;;;;33.30;96407.00;;;;8240591;28;20338;-63
2023/06/26 07:33:50;;;;;;;6.65;5.97;;;;;33.60;96408.00;;;;8249211;28;20223;-64
2023/06/26 07:37:55;;;;;;;6.40;5.80;;;;;33.90;96404.00;;;;8239739;28;20202;-63
2023/06/26 07:41:59;;;;;;;6.93;6.22;;;;;34.20;96410.00;;;;8240177;28;20230;-63
2023/06/26 07:46:03;;;;;;;7.97;6.05;;;;;34.50;96400.00;;;;8242483;28;20200;-63
2023/06/26 07:50:07;;;;;;;8.13;6.00;;;;;34.90;96409.00;;;;8244426;28;20210;-64
2023/06/26 07:54:10;;;;;;;8.98;5.65;;;;;34.90;96400.00;;;;8239424;28;20277;-63
2023/06/26 07:58:19;;;;;;;6.60;5.85;;;;;35.10;96400.00;;;;8244926;28;20631;-63
2023/06/26 08:02:24;;;;;;;6.28;5.28;;;;;35.30;96400.00;;;;8246260;28;20262;-63
2023/06/26 08:06:27;;;;;;;6.30;5.70;;;;;35.80;96394.00;;;;8242289;28;20206;-63
2023/06/26 08:10:34;;;;;;;6.40;5.40;;;;;35.80;96396.00;;;;8245342;28;20206;-64
2023/06/26 08:14:40;;;;;;;6.20;5.60;;;;;35.80;96402.00;;;;8253141;28;20230;-63
2023/06/26 08:18:44;;;;;;;9.85;5.03;;;;;35.90;96393.00;;;;8239855;28;20691;-63
2023/06/26 08:22:52;;;;;;;5.18;4.60;;;;;36.00;96383.00;;;;8242443;28;20206;-64
2023/06/26 08:26:58;;;;;;;5.93;5.32;;;;;36.40;96380.00;;;;8246147;28;20660;-62
2023/06/26 08:31:06;;;;;;;5.82;5.20;;;;;36.60;96382.00;;;;8254426;28;20245;-63
2023/06/26 08:35:13;;;;;;;8.50;5.20;;;;;36.60;96385.00;;;;8249701;28;20230;-64
2023/06/26 08:39:16;;;;;;;6.15;5.50;;;;;37.00;96381.00;;;;8254841;28;20203;-63
2023/06/26 08:43:21;;;;;;;5.68;5.18;;;;;37.20;96383.00;;;;8240279;28;20199;-63
2023/06/26 08:47:26;;;;;;;8.38;5.70;;;;;37.60;96378.00;;;;8249209;28;20285;-64
2023/06/26 08:51:34;;;;;;;5.75;5.18;;;;;37.80;96376.00;;;;8237242;28;20211;-64
2023/06/26 08:55:42;;;;;;;7.05;5.80;;;;;37.70;96370.00;;;;8251037;28;20233;-63
2023/06/26 08:59:49;;;;;;;6.05;5.45;;;;;37.60;96375.00;;;;8244546;28;20239;-64
2023/06/26 09:03:52;;;;;;;6.82;5.50;;;;;37.40;96375.00;;;;8241697;28;20230;-64
2023/06/26 09:07:59;;;;;;;5.95;5.43;;;;;37.40;96376.00;;;;8244409;28;20310;-63
2023/06/26 09:12:03;;;;;;;7.57;6.22;;;;;37.80;96372.00;;;;8252056;28;20199;-64
2023/06/26 09:16:08;;;;;;;5.78;5.22;;;;;38.10;96367.00;;;;8247887;28;20652;-64
2023/06/26 09:20:15;;;;;;;7.63;5.45;;;;;37.90;96362.00;;;;8251114;28;20644;-63
2023/06/26 09:24:23;;;;;;;6.35;5.50;;;;;38.00;96370.00;;;;8251654;28;20227;-63
2023/06/26 09:28:28;;;;;;;7.25;5.30;;;;;38.30;96352.00;;;;8251247;28;20238;-63
2023/06/26 09:32:32;;;;;;;8.55;6.35;;;;;37.80;96357.00;;;;8243140;28;20955;-64
2023/06/26 09:36:42;;;;;;;5.90;5.30;;;;;38.10;96351.00;;;;8242274;28;20226;-64
2023/06/26 09:40:49;;;;;;;6.60;5.43;;;;;38.30;96353.00;;;;8244129;28;20273;-63
2023/06/26 09:44:55;;;;;;;6.70;5.68;;;;;38.80;96355.00;;;;8243648;28;20195;-64
2023/06/26 09:49:04;;;;;;;7.50;5.78;;;;;39.00;96354.00;;;;8250401;28;20195;-64
2023/06/26 09:53:13;;;;;;;8.02;5.82;;;;;39.30;96343.00;;;;8243821;28;20218;-64
2023/06/26 09:57:19;;;;;;;6.00;5.45;;;;;39.30;96344.00;;;;8248360;28;20318;-64
2023/06/26 10:01:23;;;;;;;6.38;5.75;;;;;39.10;96348.00;;;;8246980;28;20353;-63
2023/06/26 10:05:30;;;;;;;7.50;5.85;;;;;39.40;96341.00;;;;8251336;28;20245;-64
2023/06/26 10:09:38;;;;;;;7.10;6.00;;;;;39.80;96358.00;;;;8240897;28;20285;-64
2023/06/26 10:13:47;;;;;;;6.38;5.63;;;;;39.50;96347.00;;;;8246643;28;20207;-64
2023/06/26 10:17:52;;;;;;;7.18;6.10;;;;;39.90;96338.00;;;;8240997;28;20233;-64
2023/06/26 10:21:58;;;;;;;8.02;5.72;;;;;40.10;96326.00;;;;8241021;28;20211;-64
2023/06/26 10:26:02;;;;;;;6.32;5.72;;;;;40.60;96324.00;;;;8245577;28;20203;-64
2023/06/26 10:30:15;;;;;;;6.82;6.15;;;;;41.10;96324.00;;;;8242519;28;20579;-64
2023/06/26 10:34:21;;;;;;;9.25;6.63;;;;;40.80;96325.00;;;;8249836;28;20285;-64
2023/06/26 10:38:51;;;;;;;7.40;6.18;;;;;41.10;96316.00;;;;8236699;28;20725;-64
2023/06/26 10:43:08;;;;;;;7.10;6.40;;;;;41.00;96312.00;;;;8233769;28;20282;-64
2023/06/26 10:47:30;;;;;;;6.03;5.45;;;;;40.60;96319.00;;;;8235831;28;20878;-63
2023/06/26 10:51:36;;;;;;;6.45;5.68;;;;;40.50;96314.00;;;;8253478;28;20204;-64
2023/06/26 10:55:42;;;;;;;6.97;5.90;;;;;41.00;96305.00;;;;8245058;28;20226;-63
2023/06/26 10:59:46;;;;;;;8.10;5.63;;;;;40.60;96302.00;;;;8235089;28;20640;-64
2023/06/26 11:04:05;;;;;;;6.68;5.97;;;;;39.90;96306.00;;;;8250067;28;20326;-63
2023/06/26 11:08:11;;;;;;;7.43;6.07;;;;;40.10;96308.00;;;;8246615;28;21270;-62
2023/06/26 11:12:14;;;;;;;6.63;5.68;;;;;40.40;96301.00;;;;8250254;28;20998;-63
2023/06/26 11:16:21;;;;;;;6.82;5.80;;;;;40.90;96296.00;;;;8242122;28;20570;-63
2023/06/26 11:20:28;;;;;;;9.15;6.05;;;;;40.80;96291.00;;;;8245712;28;20333;-63
2023/06/26 11:24:34;;;;;;;8.52;6.75;;;;;40.60;96290.00;;;;8226677;28;20202;-63
2023/06/26 11:28:37;;;;;;;6.97;6.28;;;;;40.60;96284.00;;;;8237665;28;20545;-64
2023/06/26 11:32:41;;;;;;;6.53;5.88;;;;;40.80;96288.00;;;;8236748;28;20333;-63
2023/06/26 11:36:48;;;;;;;6.22;5.57;;;;;40.70;96289.00;;;;8241920;28;20653;-63
2023/06/26 11:40:54;;;;;;;6.18;4.93;;;;;40.90;96273.00;;;;8235809;28;20210;-63
2023/06/26 11:44:59;;;;;;;5.05;4.63;;;;;40.20;96276.00;;;;8244742;28;20314;-63
2023/06/26 11:49:07;;;;;;;5.03;4.53;;;;;39.70;96268.00;;;;8240699;28;20624;-63
2023/06/26 11:53:19;;;;;;;6.70;5.13;;;;;39.70;96271.00;;;;8246597;28;20655;-64
2023/06/26 11:57:22;;;;;;;5.22;4.72;;;;;39.50;96272.00;;;;8257339;28;20308;-64
2023/06/26 12:01:31;;;;;;;5.80;5.30;;;;;39.70;96269.00;;;;8264537;28;20335;-63
2023/06/26 12:05:35;;;;;;;7.05;5.05;;;;;39.90;96258.00;;;;8257518;28;20237;-63
2023/06/26 12:09:45;;;;;;;5.88;5.32;;;;;39.90;96260.00;;;;8258484;28;20201;-63
2023/06/26 12:13:48;;;;;;;5.93;5.32;;;;;39.60;96260.00;;;;8261642;28;20257;-63
2023/06/26 12:17:52;;;;;;;5.35;4.60;;;;;39.70;96271.00;;;;8246334;28;20230;-64
2023/06/26 12:21:58;;;;;;;7.07;5.60;;;;;39.70;96258.00;;;;8244200;28;20687;-64
2023/06/26 12:26:18;;;;;;;6.90;5.40;;;;;40.20;96258.00;;;;8249414;28;20229;-64
2023/06/26 12:30:22;;;;;;;6.25;5.20;;;;;40.40;96260.00;;;;8246684;28;20564;-64
2023/06/26 12:34:30;;;;;;;7.50;5.28;;;;;40.80;96254.00;;;;8253176;28;20981;-64
2023/06/26 12:38:35;;;;;;;5.60;4.85;;;;;40.40;96256.00;;;;8255274;28;20237;-63
2023/06/26 12:42:41;;;;;;;5.72;5.00;;;;;40.20;96261.00;;;;8251134;28;20839;-64
2023/06/26 12:46:46;;;;;;;5.72;5.13;;;;;39.90;96255.00;;;;8250993;28;20621;-64
2023/06/26 12:50:50;;;;;;;5.03;4.53;;;;;39.90;96246.00;;;;8251088;28;20210;-64
2023/06/26 12:54:55;;;;;;;5.53;4.38;;;;;40.00;96238.00;;;;8249597;28;20496;-64
2023/06/26 12:59:01;;;;;;;4.80;4.40;;;;;39.70;96235.00;;;;8240771;28;20242;-64
2023/06/26 13:03:06;;;;;;;4.75;4.35;;;;;39.40;96240.00;;;;8245917;28;20310;-64
2023/06/26 13:07:15;;;;;;;6.10;4.60;;;;;39.00;96232.00;;;;8246756;28;20203;-64
2023/06/26 13:11:19;;;;;;;4.82;4.43;;;;;38.40;96243.00;;;;8238590;28;20697;-65
2023/06/26 13:15:23;;;;;;;5.88;4.55;;;;;38.00;96234.00;;;;8242672;28;20233;-66
2023/06/26 13:19:29;;;;;;;5.65;4.50;;;;;38.50;96234.00;;;;8241892;28;20290;-66
2023/06/26 13:23:36;;;;;;;7.63;4.75;;;;;39.00;96239.00;;;;8247859;28;20261;-66
2023/06/26 13:27:39;;;;;;;4.88;4.47;;;;;39.10;96237.00;;;;8246996;28;20537;-66
2023/06/26 13:31:44;;;;;;;5.10;4.47;;;;;38.30;96227.00;;;;8243832;28;20569;-66
2023/06/26 13:35:48;;;;;;;4.10;3.80;;;;;38.40;96222.00;;;;8248887;28;20257;-66
2023/06/26 13:39:51;;;;;;;5.60;4.40;;;;;37.90;96219.00;;;;8250278;28;20286;-66
2023/06/26 13:43:57;;;;;;;6.28;4.45;;;;;37.90;96222.00;;;;8248528;28;20203;-66
2023/06/26 13:48:24;;;;;;;5.35;4.50;;;;;37.90;96211.00;;;;8250155;28;20711;-66
2023/06/26 13:52:28;;;;;;;4.88;4.40;;;;;38.40;96207.00;;;;8250834;28;20314;-66
2023/06/26 13:56:31;;;;;;;4.82;4.22;;;;;38.90;96213.00;;;;8250598;28;20269;-66
2023/06/26 14:00:35;;;;;;;4.43;4.05;;;;;39.10;96211.00;;;;8230394;28;20199;-66
2023/06/26 14:04:41;;;;;;;4.60;4.20;;;;;39.10;96231.00;;;;8250471;28;20276;-66
2023/06/26 14:08:44;;;;;;;4.65;4.25;;;;;38.00;96205.00;;;;8245613;28;20229;-66
2023/06/26 14:12:47;;;;;;;5.60;4.57;;;;;38.30;96216.00;;;;8245016;28;20246;-66
2023/06/26 14:16:54;;;;;;;4.95;4.55;;;;;38.50;96196.00;;;;8247667;28;20313;-66
2023/06/26 14:20:59;;;;;;;5.40;4.63;;;;;38.80;96203.00;;;;8247073;28;20207;-66
2023/06/26 14:25:03;;;;;;;6.18;4.20;;;;;38.90;96201.00;;;;8247119;28;20285;-66
2023/06/26 14:29:08;;;;;;;6.03;4.55;;;;;39.00;96190.00;;;;8244826;28;20644;-66
2023/06/26 14:33:11;;;;;;;5.03;4.57;;;;;39.30;96190.00;;;;8242470;28;20238;-66
2023/06/26 14:37:18;;;;;;;5.82;4.20;;;;;39.20;96184.00;;;;8242423;28;20321;-66
2023/06/26 14:41:22;;;;;;;4.60;4.20;;;;;39.40;96180.00;;;;8242191;28;20697;-65
2023/06/26 14:45:25;;;;;;;4.45;4.05;;;;;39.30;96169.00;;;;8254058;28;20199;-65
2023/06/26 14:49:29;;;;;;;5.07;4.63;;;;;39.20;96163.00;;;;8255448;28;20198;-64
2023/06/26 14:53:33;;;;;;;4.85;4.35;;;;;39.10;96188.00;;;;8257752;28;20556;-64
2023/06/26 14:57:37;;;;;;;6.05;4.60;;;;;38.80;96176.00;;;;8259207;28;20317;-65
2023/06/26 15:01:40;;;;;;;5.50;4.45;;;;;38.30;96179.00;;;;8251803;28;20206;-65
2023/06/26 15:05:43;;;;;;;4.97;4.57;;;;;37.30;96172.00;;;;8239358;28;20207;-66
2023/06/26 15:09:48;;;;;;;7.00;4.72;;;;;36.90;96187.00;;;;8245302;28;20243;-65
2023/06/26 15:13:51;;;;;;;5.32;4.82;;;;;36.50;96171.00;;;;8249430;28;20238;-66
2023/06/26 15:18:00;;;;;;;6.45;5.13;;;;;36.30;96172.00;;;;8238931;28;20309;-66
2023/06/26 15:22:06;;;;;;;6.82;5.13;;;;;36.00;96167.00;;;;8243282;28;20207;-66
2023/06/26 15:26:11;;;;;;;6.55;5.55;;;;;35.60;96160.00;;;;8242330;28;20210;-66
2023/06/26 15:30:15;;;;;;;5.78;4.88;;;;;35.70;96151.00;;;;8243169;28;20269;-65
2023/06/26 15:34:20;;;;;;;7.68;5.28;;;;;36.40;96154.00;;;;8241831;28;20647;-65
2023/06/26 15:38:23;;;;;;;6.10;5.18;;;;;36.90;96147.00;;;;8247952;28;20239;-65
2023/06/26 15:42:29;;;;;;;5.10;4.70;;;;;37.10;96139.00;;;;8248749;28;20241;-65
2023/06/26 15:46:37;;;;;;;8.18;5.32;;;;;36.90;96152.00;;;;8243479;28;20203;-66
2023/06/26 15:50:40;;;;;;;10.80;5.38;;;;;37.00;96148.00;;;;8239809;28;20203;-65
2023/06/26 15:54:45;;;;;;;5.60;5.10;;;;;37.00;96154.00;;;;8246964;28;20210;-66
2023/06/26 15:58:50;;;;;;;9.05;5.85;;;;;37.20;96139.00;;;;8248978;28;20226;-65
2023/06/26 16:02:53;;;;;;;5.40;4.90;;;;;37.20;96138.00;;;;8243971;28;20305;-65
2023/06/26 16:07:02;;;;;;;6.10;5.50;;;;;37.00;96128.00;;;;8247620;28;20203;-65
2023/06/26 16:11:06;;;;;;;6.07;5.47;;;;;37.00;96128.00;;;;8241739;28;20199;-65
2023/06/26 16:15:16;;;;;;;6.18;5.57;;;;;37.20;96127.00;;;;8249263;28;20237;-65
2023/06/26 16:19:31;;;;;;;6.75;5.47;;;;;37.00;96121.00;;;;8246190;28;20223;-65
2023/06/26 16:23:34;;;;;;;6.55;5.57;;;;;37.00;96119.00;;;;8241741;28;20221;-65
2023/06/26 16:27:38;;;;;;;8.10;6.30;;;;;36.60;96120.00;;;;8249959;28;20214;-65
2023/06/26 16:31:44;;;;;;;6.93;5.85;;;;;36.60;96109.00;;;;8242203;28;20202;-64
2023/06/26 16:35:48;;;;;;;7.47;6.05;;;;;36.50;96118.00;;;;8252389;28;20210;-65
2023/06/26 16:39:51;;;;;;;8.27;5.95;;;;;36.00;96108.00;;;;8242579;28;20791;-65
2023/06/26 16:43:55;;;;;;;7.38;6.03;;;;;35.60;96105.00;;;;8242722;28;20312;-65
2023/06/26 16:47:59;;;;;;;7.50;6.65;;;;;35.30;96115.00;;;;8247064;28;20225;-63
2023/06/26 16:52:06;;;;;;;9.70;6.28;;;;;35.10;96114.00;;;;8252869;28;20258;-62
2023/06/26 16:56:09;;;;;;;10.18;6.22;;;;;35.20;96112.00;;;;8255516;28;20222;-64
2023/06/26 17:00:15;;;;;;;14.27;6.57;;;;;35.30;96122.00;;;;8244032;28;20226;-66
2023/06/26 17:04:20;;;;;;;11.68;6.70;;;;;35.00;96113.00;;;;8255766;28;20240;-64
2023/06/26 17:08:25;;;;;;;9.88;6.47;;;;;34.40;96120.00;;;;8265701;28;20241;-64
2023/06/26 17:12:29;;;;;;;7.80;6.53;;;;;34.10;96118.00;;;;8266052;28;20666;-64
2023/06/26 17:16:35;;;;;;;12.38;6.78;;;;;33.80;96129.00;;;;8261980;28;20231;-63
2023/06/26 17:20:39;;;;;;;8.27;6.55;;;;;33.40;96128.00;;;;8260795;28;20233;-66
2023/06/26 17:24:44;;;;;;;7.90;6.78;;;;;32.90;96143.00;;;;8244671;28;20208;-67
2023/06/26 17:28:47;;;;;;;8.93;7.10;;;;;33.00;96138.00;;;;8242979;28;20194;-64
2023/06/26 17:32:55;;;;;;;10.30;7.20;;;;;32.80;96142.00;;;;8246944;28;20203;-64
2023/06/26 17:37:01;;;;;;;9.15;6.75;;;;;32.80;96144.00;;;;8242116;28;20282;-64
2023/06/26 17:41:06;;;;;;;10.00;6.97;;;;;32.90;96149.00;;;;8251086;28;20722;-64
2023/06/26 17:45:11;;;;;;;7.72;6.82;;;;;33.00;96154.00;;;;8247557;28;21027;-65
2023/06/26 17:49:14;;;;;;;9.07;7.30;;;;;32.90;96160.00;;;;8250389;28;20281;-64
2023/06/26 17:53:19;;;;;;;10.20;6.63;;;;;32.80;96157.00;;;;8249464;28;20195;-64
2023/06/26 17:57:24;;;;;;;11.48;6.90;;;;;32.50;96175.00;;;;8243063;28;20206;-64
2023/06/26 18:01:27;;;;;;;8.45;7.10;;;;;32.10;96195.00;;;;8251227;28;20632;-64
2023/06/26 18:05:31;;;;;;;11.23;7.15;;;;;31.60;96201.00;;;;8249380;28;20912;-64
2023/06/26 18:09:37;;;;;;;10.45;6.55;;;;;31.00;96219.00;;;;8251884;28;20310;-63
2023/06/26 18:13:46;;;;;;;8.50;6.70;;;;;30.40;96209.00;;;;8248059;28;20309;-65
2023/06/26 18:17:55;;;;;;;8.18;6.07;;;;;30.20;96217.00;;;;8242323;28;20771;-66
2023/06/26 18:22:02;;;;;;;9.40;6.60;;;;;29.90;96236.00;;;;8240572;28;20580;-64
2023/06/26 18:26:09;;;;;;;12.13;6.88;;;;;29.70;96237.00;;;;8245425;28;20230;-65
2023/06/26 18:30:15;;;;;;;10.27;5.53;;;;;29.40;96239.00;;;;8247447;28;20281;-66
2023/06/26 18:34:22;;;;;;;8.65;5.50;;;;;29.20;96246.00;;;;8247320;28;20198;-65
2023/06/26 18:38:25;;;;;;;10.32;5.25;;;;;29.00;96245.00;;;;8251086;28;20667;-65
2023/06/26 18:42:29;;;;;;;6.05;4.72;;;;;28.90;96246.00;;;;8241265;28;20203;-65
2023/06/26 18:46:32;;;;;;;8.18;4.97;;;;;28.70;96246.00;;;;8245690;28;20207;-64
2023/06/26 18:50:38;;;;;;;9.52;4.30;;;;;28.50;96258.00;;;;8243374;28;20234;-63
2023/06/26 18:54:41;;;;;;;11.57;4.15;;;;;28.30;96265.00;;;;8240668;28;20237;-63
2023/06/26 18:58:46;;;;;;;8.82;4.78;;;;;28.10;96269.00;;;;8248203;28;20343;-65
2023/06/26 19:02:49;;;;;;;5.90;4.30;;;;;27.90;96272.00;;;;8240854;28;20297;-64
2023/06/26 19:06:53;;;;;;;5.97;4.03;;;;;27.70;96282.00;;;;8246056;28;20232;-64
2023/06/26 19:11:01;;;;;;;6.32;4.40;;;;;27.60;96294.00;;;;8241402;28;20205;-64
2023/06/26 19:15:07;;;;;;;6.63;4.20;;;;;27.40;96285.00;;;;8242681;28;20306;-66
2023/06/26 19:19:10;;;;;;;7.68;4.93;;;;;27.20;96297.00;;;;8240748;28;20245;-64
2023/06/26 19:23:14;;;;;;;8.55;4.57;;;;;27.10;96297.00;;;;8248317;28;20808;-63
2023/06/26 19:27:20;;;;;;;7.32;4.72;;;;;26.90;96298.00;;;;8245127;28;20712;-64
2023/06/26 19:31:26;;;;;;;8.32;4.88;;;;;26.80;96309.00;;;;8243974;28;20624;-63
2023/06/26 19:35:30;;;;;;;6.38;5.18;;;;;26.70;96315.00;;;;8234417;28;20206;-65
2023/06/26 19:39:33;;;;;;;8.85;5.40;;;;;26.60;96312.00;;;;8243419;28;20699;-63
2023/06/26 19:43:47;;;;;;;9.73;4.70;;;;;26.40;96309.00;;;;8239132;28;20286;-66
2023/06/26 19:47:52;;;;;;;10.23;5.10;;;;;26.30;96325.00;;;;8244152;28;20241;-64
2023/06/26 19:51:59;;;;;;;7.80;5.68;;;;;26.10;96324.00;;;;8247380;28;20195;-64
2023/06/26 19:56:04;;;;;;;7.97;6.30;;;;;26.00;96323.00;;;;8244286;28;20209;-67
2023/06/26 20:00:08;;;;;;;8.32;6.25;;;;;25.80;96325.00;;;;8243849;28;20321;-64
2023/06/26 20:04:14;;;;;;;9.43;5.95;;;;;25.70;96330.00;;;;8244996;28;20260;-63
2023/06/26 20:08:17;;;;;;;17.55;7.32;;;;;25.60;96328.00;;;;8220333;28;20209;-63
2023/06/26 20:12:23;;;;;;;10.27;7.03;;;;;25.40;96332.00;;;;8244181;28;20305;-64
2023/06/26 20:16:29;;;;;;;10.18;6.88;;;;;25.30;96335.00;;;;8242449;28;20215;-63
2023/06/26 20:20:34;;;;;;;13.85;7.32;;;;;25.20;96332.00;;;;8240571;28;20230;-63
2023/06/26 20:24:39;;;;;;;10.70;6.78;;;;;25.10;96332.00;;;;8251898;28;20201;-64